createdAt,value
2022-08-17T04:02:36.539Z,20.09
2022-08-17T04:05:06.189Z,20.16
2022-08-17T04:07:35.582Z,20.14
2022-08-17T04:10:04.969Z,20.13
2022-08-17T04:12:44.833Z,20.15
2022-08-17T04:15:15.332Z,20.12
2022-08-17T04:17:47.373Z,20.12
2022-08-17T04:20:17.971Z,20.12
2022-08-17T04:22:58.342Z,20.08
2022-08-17T04:25:28.117Z,19.98
2022-08-17T04:27:57.610Z,19.79
2022-08-17T04:30:27.336Z,19.74
2022-08-17T04:33:05.792Z,19.78
2022-08-17T04:35:37.943Z,19.84
2022-08-17T04:38:07.955Z,19.87
2022-08-17T04:40:49.993Z,19.86
2022-08-17T04:43:21.368Z,19.89
2022-08-17T04:45:56.120Z,19.94
2022-08-17T04:48:36.913Z,19.98
2022-08-17T04:51:09.886Z,20.01
2022-08-17T04:53:39.784Z,20.03
2022-08-17T04:56:11.665Z,20.01
2022-08-17T04:58:45.768Z,19.95
2022-08-17T05:01:15.395Z,19.89
2022-08-17T05:03:47.424Z,19.97
2022-08-17T05:06:16.816Z,20.07
2022-08-17T05:08:46.167Z,20.08
2022-08-17T05:11:15.825Z,20.17
2022-08-17T05:13:45.165Z,20.18
2022-08-17T05:16:14.954Z,20.23
2022-08-17T05:18:47.005Z,20.27
2022-08-17T05:21:16.750Z,20.38
2022-08-17T05:23:53.241Z,20.39
2022-08-17T05:26:27.215Z,20.46
2022-08-17T05:29:00.632Z,20.43
2022-08-17T05:31:32.748Z,20.47
2022-08-17T05:34:04.693Z,20.35
2022-08-17T05:36:43.287Z,20.31
2022-08-17T05:39:16.954Z,20.28
2022-08-17T05:41:47.462Z,20.30
2022-08-17T05:44:17.086Z,20.36
2022-08-17T05:46:49.988Z,20.44
2022-08-17T05:49:27.196Z,20.60
2022-08-17T05:52:04.373Z,20.78
2022-08-17T05:54:39.578Z,20.86
2022-08-17T05:57:16.599Z,20.92
2022-08-17T05:59:54.263Z,20.89
2022-08-17T06:02:25.660Z,20.96
2022-08-17T06:05:08.145Z,21.06
2022-08-17T06:07:42.408Z,21.12
2022-08-17T06:10:15.981Z,21.12
2022-08-17T06:12:51.430Z,21.17
2022-08-17T06:15:32.125Z,21.21
2022-08-17T06:18:02.481Z,21.22
2022-08-17T06:20:38.599Z,21.25
2022-08-17T06:23:11.062Z,21.26
2022-08-17T06:25:45.695Z,21.24
2022-08-17T06:28:17.209Z,21.18
2022-08-17T06:30:59.496Z,21.11
2022-08-17T06:33:32.228Z,21.01
2022-08-17T06:36:09.618Z,21.01
2022-08-17T06:38:45.545Z,20.99
2022-08-17T06:41:20.159Z,20.92
2022-08-17T06:43:53.333Z,20.97
2022-08-17T06:46:26.292Z,21.05
2022-08-17T06:49:07.404Z,21.18
2022-08-17T06:51:41.648Z,21.26
2022-08-17T06:54:13.209Z,21.30
2022-08-17T06:56:54.252Z,21.42
2022-08-17T06:59:30.465Z,21.55
2022-08-17T07:02:29.104Z,21.66
2022-08-17T07:05:09.185Z,21.64
2022-08-17T07:07:54.818Z,21.68
2022-08-17T07:10:24.984Z,21.69
2022-08-17T07:12:56.349Z,21.69
2022-08-17T07:15:28.609Z,21.72
2022-08-17T07:17:59.748Z,21.73
2022-08-17T07:20:31.307Z,21.79
2022-08-17T07:23:06.449Z,21.93
2022-08-17T07:25:35.871Z,21.95
2022-08-17T07:28:07.894Z,21.99
2022-08-17T07:30:46.954Z,22.03
2022-08-17T07:33:20.265Z,22.21
2022-08-17T07:35:50.273Z,22.48
2022-08-17T07:38:26.988Z,22.70
2022-08-17T07:41:05.294Z,22.83
2022-08-17T07:43:35.339Z,22.92
2022-08-17T07:46:27.106Z,22.87
2022-08-17T07:48:57.999Z,22.85
2022-08-17T07:51:28.702Z,22.82
2022-08-17T07:54:14.045Z,22.64
2022-08-17T07:56:46.589Z,22.70
2022-08-17T07:59:18.117Z,22.77
2022-08-17T08:02:05.381Z,22.84
2022-08-17T08:07:29.566Z,23.01
2022-08-17T08:10:11.366Z,22.91
2022-08-17T08:12:41.796Z,23.12
2022-08-17T08:15:15.513Z,23.26
2022-08-17T08:17:49.574Z,23.27
2022-08-17T08:20:37.615Z,23.31
2022-08-17T08:23:15.719Z,23.46
2022-08-17T08:25:56.808Z,23.39
2022-08-17T08:28:31.152Z,23.44
2022-08-17T08:31:06.646Z,23.46
2022-08-17T08:33:46.092Z,23.54
2022-08-17T08:37:14.063Z,23.66
2022-08-17T08:39:20.491Z,23.53
2022-08-17T08:41:58.935Z,23.43
2022-08-17T08:45:00.952Z,23.44
2022-08-17T08:47:35.500Z,23.50
2022-08-17T08:50:37.110Z,23.53
2022-08-17T08:53:15.021Z,23.70
2022-08-17T08:55:50.583Z,23.79
2022-08-17T08:58:32.146Z,23.80
2022-08-17T09:01:16.904Z,23.66
2022-08-17T09:04:19.930Z,23.69
2022-08-17T09:06:56.554Z,23.69
2022-08-17T09:09:30.242Z,23.75
2022-08-17T09:12:05.074Z,23.88
2022-08-17T09:14:45.508Z,23.92
2022-08-17T09:17:19.264Z,23.98
2022-08-17T09:19:51.142Z,23.95
2022-08-17T09:22:31.502Z,23.92
2022-08-17T09:27:33.628Z,24.09
2022-08-17T09:30:07.997Z,24.29
2022-08-17T09:32:44.741Z,24.59
2022-08-17T09:35:17.405Z,24.81
2022-08-17T09:37:56.227Z,24.92
2022-08-17T09:40:27.116Z,25.11
2022-08-17T09:42:59.110Z,25.08
2022-08-17T09:45:41.053Z,24.94
2022-08-17T09:48:14.414Z,24.83
2022-08-17T09:51:05.341Z,24.65
2022-08-17T09:53:36.413Z,24.57
2022-08-17T09:56:11.031Z,24.59
2022-08-17T09:58:47.671Z,24.66
2022-08-17T10:01:29.218Z,24.77
2022-08-17T10:04:08.050Z,24.96
2022-08-17T10:06:40.566Z,25.20
2022-08-17T10:09:15.805Z,25.38
2022-08-17T10:12:11.666Z,25.58
2022-08-17T10:14:53.373Z,25.68
2022-08-17T10:17:30.678Z,25.78
2022-08-17T10:20:05.593Z,25.78
2022-08-17T10:22:55.035Z,25.89
2022-08-17T10:25:54.034Z,25.85
2022-08-17T10:28:29.722Z,25.89
2022-08-17T10:31:30.812Z,25.70
2022-08-17T10:34:00.493Z,25.91
2022-08-17T10:36:38.834Z,25.97
2022-08-17T10:39:15.000Z,25.97
2022-08-17T10:41:46.855Z,25.91
2022-08-17T10:44:39.280Z,26.02
2022-08-17T10:47:11.793Z,26.29
2022-08-17T10:49:49.610Z,26.40
2022-08-17T10:52:34.161Z,26.57
2022-08-17T10:55:14.542Z,26.77
2022-08-17T10:57:45.578Z,27.02
2022-08-17T11:00:17.483Z,27.22
2022-08-17T11:02:50.499Z,27.26
2022-08-17T11:05:32.323Z,27.30
2022-08-17T11:08:11.890Z,27.36
2022-08-17T11:10:52.639Z,27.48
2022-08-17T11:13:28.120Z,27.64
2022-08-17T11:16:08.130Z,27.64
2022-08-17T11:18:55.510Z,27.71
2022-08-17T11:21:38.573Z,27.73
2022-08-17T11:24:19.334Z,27.64
2022-08-17T11:27:01.712Z,27.85
2022-08-17T11:29:33.916Z,28.06
2022-08-17T11:32:07.848Z,28.26
2022-08-17T11:34:41.795Z,28.27
2022-08-17T11:37:30.861Z,28.53
2022-08-17T11:40:12.934Z,28.53
2022-08-17T11:42:53.771Z,28.44
2022-08-17T11:45:37.950Z,28.44
2022-08-17T11:48:28.117Z,28.29
2022-08-17T11:51:14.755Z,28.33
2022-08-17T11:54:31.651Z,28.51
2022-08-17T11:56:53.057Z,28.63
2022-08-17T11:59:39.315Z,28.72
2022-08-17T12:02:31.739Z,28.80
2022-08-17T12:05:27.543Z,28.85
2022-08-17T12:08:03.805Z,28.94
2022-08-17T12:10:35.800Z,29.10
2022-08-17T12:13:09.195Z,29.29
2022-08-17T12:15:40.294Z,29.51
2022-08-17T12:18:09.874Z,29.53
2022-08-17T12:20:45.703Z,29.70
2022-08-17T12:23:20.240Z,29.73
2022-08-17T12:25:52.903Z,29.82
2022-08-17T12:28:25.061Z,29.54
2022-08-17T12:30:55.155Z,29.32
2022-08-17T12:33:28.877Z,29.33
2022-08-17T12:36:03.554Z,29.18
2022-08-17T12:38:34.890Z,29.21
2022-08-17T12:41:26.288Z,29.59
2022-08-17T12:44:02.470Z,29.82
2022-08-17T12:46:33.809Z,29.89
2022-08-17T12:49:20.503Z,29.75
2022-08-17T12:51:54.568Z,29.83
2022-08-17T12:54:31.470Z,29.84
2022-08-17T12:57:03.480Z,29.60
2022-08-17T12:59:37.096Z,29.81
2022-08-17T13:02:12.926Z,29.98
2022-08-17T13:04:43.008Z,30.01
2022-08-17T13:07:15.528Z,29.89
2022-08-17T13:09:53.226Z,30.01
2022-08-17T13:12:28.584Z,30.17
2022-08-17T13:14:58.061Z,30.08
2022-08-17T13:17:32.001Z,29.98
2022-08-17T13:20:01.656Z,30.04
2022-08-17T13:22:34.435Z,30.21
2022-08-17T13:25:09.346Z,30.31
2022-08-17T13:27:38.885Z,30.29
2022-08-17T13:30:14.943Z,30.33
2022-08-17T13:32:46.597Z,30.35
2022-08-17T13:35:39.892Z,30.42
2022-08-17T13:38:13.637Z,30.47
2022-08-17T13:40:45.360Z,30.59
2022-08-17T13:43:14.906Z,30.81
2022-08-17T13:45:50.338Z,30.93
2022-08-17T13:48:29.274Z,30.82
2022-08-17T13:51:13.774Z,30.88
2022-08-17T13:53:57.714Z,31.07
2022-08-17T13:56:37.913Z,31.16
2022-08-17T13:59:10.098Z,31.25
2022-08-17T14:01:40.821Z,30.89
2022-08-17T14:04:11.356Z,30.66
2022-08-17T14:06:53.980Z,30.73
2022-08-17T14:09:28.288Z,30.46
2022-08-17T14:11:59.504Z,30.39
2022-08-17T14:14:29.591Z,30.69
2022-08-17T14:16:59.005Z,30.76
2022-08-17T14:19:28.731Z,30.89
2022-08-17T14:21:59.879Z,31.11
2022-08-17T14:24:35.292Z,31.48
2022-08-17T14:27:05.676Z,31.50
2022-08-17T14:29:36.107Z,31.27
2022-08-17T14:32:09.574Z,31.32
2022-08-17T14:34:38.969Z,31.30
2022-08-17T14:37:08.420Z,31.17
2022-08-17T14:39:40.561Z,31.07
2022-08-17T14:42:11.512Z,31.01
2022-08-17T14:44:41.048Z,31.21
2022-08-17T14:47:13.861Z,31.36
2022-08-17T14:49:43.796Z,31.42
2022-08-17T14:52:18.523Z,31.43
2022-08-17T14:54:51.404Z,31.36
2022-08-17T14:57:26.183Z,31.50
2022-08-17T15:00:04.334Z,31.61
2022-08-17T15:02:34.152Z,31.66
2022-08-17T15:05:04.060Z,31.64
2022-08-17T15:07:33.616Z,31.64
2022-08-17T15:10:06.275Z,31.74
2022-08-17T15:12:35.625Z,31.82
2022-08-17T15:15:05.475Z,31.89
2022-08-17T15:17:44.906Z,31.86
2022-08-17T15:20:16.565Z,31.77
2022-08-17T15:22:46.357Z,31.78
2022-08-17T15:25:19.019Z,31.88
2022-08-17T15:27:48.574Z,31.80
2022-08-17T15:30:18.427Z,31.89
2022-08-17T15:32:54.068Z,31.86
2022-08-17T15:35:27.040Z,31.66
2022-08-17T15:37:57.919Z,31.69
2022-08-17T15:40:29.865Z,31.91
2022-08-17T15:43:06.830Z,32.09
2022-08-17T15:45:36.263Z,32.02
2022-08-17T15:48:05.984Z,31.85
2022-08-17T15:50:35.585Z,31.68
2022-08-17T15:53:05.251Z,31.45
2022-08-17T15:55:38.682Z,31.54
2022-08-17T15:58:08.208Z,31.79
2022-08-17T16:00:49.421Z,31.90
2022-08-17T16:04:01.382Z,31.95
2022-08-17T16:06:16.825Z,31.84
2022-08-17T16:08:46.759Z,31.72
2022-08-17T16:11:19.454Z,31.51
2022-08-17T16:13:54.526Z,31.39
2022-08-17T16:16:26.140Z,31.44
2022-08-17T16:18:59.156Z,31.33
2022-08-17T16:21:31.297Z,31.29
2022-08-17T16:24:12.740Z,31.38
2022-08-17T16:26:45.771Z,31.49
2022-08-17T16:29:15.181Z,31.54
2022-08-17T16:31:44.581Z,31.64
2022-08-17T16:34:18.046Z,31.65
2022-08-17T16:36:54.631Z,31.68
2022-08-17T16:39:26.124Z,31.58
2022-08-17T16:41:58.250Z,31.50
2022-08-17T16:44:31.783Z,31.24
2022-08-17T16:47:01.365Z,31.06
2022-08-17T16:49:37.020Z,30.88
2022-08-17T16:52:09.908Z,30.75
2022-08-17T16:54:40.648Z,30.57
2022-08-17T16:57:12.731Z,30.41
2022-08-17T16:59:44.921Z,30.44
2022-08-17T17:02:17.861Z,30.40
2022-08-17T17:04:51.997Z,30.22
2022-08-17T17:07:36.461Z,30.25
2022-08-17T17:10:07.580Z,30.21
2022-08-17T17:13:04.000Z,30.03
2022-08-17T17:15:34.692Z,29.90
2022-08-17T17:18:07.032Z,29.82
2022-08-17T17:20:40.912Z,29.79
2022-08-17T17:23:12.637Z,29.64
2022-08-17T17:25:47.088Z,29.61
2022-08-17T17:28:25.104Z,29.56
2022-08-17T17:30:58.324Z,29.43
2022-08-17T17:33:34.871Z,29.38
2022-08-17T17:36:09.521Z,29.39
2022-08-17T17:38:43.525Z,29.27
2022-08-17T17:41:15.956Z,29.20
2022-08-17T17:43:49.429Z,29.12
2022-08-17T17:46:28.085Z,29.08
2022-08-17T17:48:58.321Z,29.04
2022-08-17T17:52:06.483Z,28.94
2022-08-17T17:54:32.378Z,28.97
2022-08-17T17:57:05.741Z,28.94
2022-08-17T17:59:44.182Z,28.93
2022-08-17T18:02:36.927Z,28.82
2022-08-17T18:05:11.005Z,28.75
2022-08-17T18:07:43.436Z,28.72
2022-08-17T18:10:19.822Z,28.67
2022-08-17T18:13:05.469Z,28.56
2022-08-17T18:15:39.687Z,28.49
2022-08-17T18:18:24.117Z,28.45
2022-08-17T18:20:56.076Z,28.41
2022-08-17T18:23:28.648Z,28.30
2022-08-17T18:25:59.506Z,28.11
2022-08-17T18:28:30.814Z,27.92
2022-08-17T18:31:15.007Z,27.83
2022-08-17T18:33:48.413Z,27.83
2022-08-17T18:36:28.620Z,27.72
2022-08-17T18:39:12.148Z,27.63
2022-08-17T18:41:43.136Z,27.57
2022-08-17T18:44:22.101Z,27.44
2022-08-17T18:47:07.608Z,27.42
2022-08-17T18:49:39.676Z,27.42
2022-08-17T18:52:15.844Z,27.36
2022-08-17T18:55:02.490Z,27.22
2022-08-17T18:57:34.765Z,27.18
2022-08-17T19:00:04.922Z,27.23
2022-08-17T19:02:50.814Z,27.16
2022-08-17T19:05:35.728Z,27.09
2022-08-17T19:08:18.705Z,27.00
2022-08-17T19:10:48.978Z,26.89
2022-08-17T19:13:24.020Z,26.81
2022-08-17T19:16:12.161Z,26.75
2022-08-17T19:18:47.931Z,26.75
2022-08-17T19:21:22.899Z,26.81
2022-08-17T19:23:54.990Z,26.80
2022-08-17T19:26:54.573Z,26.82
2022-08-17T19:29:22.127Z,26.82
2022-08-17T19:31:52.991Z,26.79
2022-08-17T19:34:29.856Z,26.76
2022-08-17T19:37:07.592Z,26.77
2022-08-17T19:39:40.324Z,26.69
2022-08-17T19:42:12.749Z,26.67
2022-08-17T19:44:47.140Z,26.64
2022-08-17T19:47:43.145Z,26.58
2022-08-17T19:50:14.510Z,26.54
2022-08-17T19:52:53.285Z,26.53
2022-08-17T19:55:30.621Z,26.54
2022-08-17T19:58:04.985Z,26.53
2022-08-17T20:00:37.151Z,26.42
2022-08-17T20:03:16.204Z,26.29
2022-08-17T20:06:11.368Z,26.15
2022-08-17T20:08:43.737Z,26.07
2022-08-17T20:11:17.922Z,26.01
2022-08-17T20:13:51.299Z,25.88
2022-08-17T20:16:21.955Z,25.88
2022-08-17T20:18:55.059Z,25.89
2022-08-17T20:21:27.185Z,25.89
2022-08-17T20:24:02.311Z,25.91
2022-08-17T20:26:38.080Z,25.96
2022-08-17T20:29:12.372Z,25.98
2022-08-17T20:31:44.697Z,25.93
2022-08-17T20:34:37.378Z,25.84
2022-08-17T20:37:09.046Z,25.66
2022-08-17T20:39:44.704Z,25.57
2022-08-17T20:42:29.921Z,25.48
2022-08-17T20:45:02.434Z,25.39
2022-08-17T20:47:35.000Z,25.35
2022-08-17T20:50:06.949Z,25.41
2022-08-17T20:52:51.366Z,25.37
2022-08-17T20:55:35.756Z,25.28
2022-08-17T20:58:37.072Z,25.24
2022-08-17T21:01:24.472Z,25.17
2022-08-17T21:03:56.189Z,25.17
2022-08-17T21:06:27.569Z,25.09
2022-08-17T21:08:59.411Z,25.08
2022-08-17T21:12:02.430Z,24.99
2022-08-17T21:14:49.237Z,24.89
2022-08-17T21:17:38.162Z,24.72
2022-08-17T21:20:12.874Z,24.66
2022-08-17T21:22:49.573Z,24.68
2022-08-17T21:25:29.714Z,24.61
2022-08-17T21:28:05.188Z,24.53
2022-08-17T21:30:49.483Z,24.46
2022-08-17T21:33:27.172Z,24.52
2022-08-17T21:36:17.076Z,24.54
2022-08-17T21:38:57.723Z,24.51
2022-08-17T21:41:29.165Z,24.43
2022-08-17T21:44:03.704Z,24.36
2022-08-17T21:46:37.024Z,24.31
2022-08-17T21:49:13.614Z,24.29
2022-08-17T21:51:46.040Z,24.33
2022-08-17T21:54:25.320Z,24.24
2022-08-17T21:56:55.014Z,24.21
2022-08-17T21:59:28.263Z,24.18
2022-08-17T22:01:59.050Z,24.11
2022-08-17T22:04:34.704Z,24.09
2022-08-17T22:07:05.059Z,24.06
2022-08-17T22:09:35.834Z,24.08
2022-08-17T22:12:07.712Z,24.11
2022-08-17T22:14:52.410Z,24.11
2022-08-17T22:17:25.217Z,24.03
2022-08-17T22:19:58.298Z,23.97
2022-08-17T22:22:56.300Z,23.98
